sensor_id;sensor_type;location;lat;lon;timestamp;pressure;altitude;pressure_sealevel;temperature;humidity
69035;BME280;56091;55.756;37.412;2023-02-10T00:03:05;99998.72;;;-2.27;68.65
69035;BME280;56091;55.756;37.412;2023-02-10T00:08:05;100011.25;;;-2.29;68.61
69035;BME280;56091;55.756;37.412;2023-02-10T00:13:09;100004.16;;;-2.28;68.54
69035;BME280;56091;55.756;37.412;2023-02-10T00:18:09;99990.41;;;-2.32;67.85
69035;BME280;56091;55.756;37.412;2023-02-10T00:23:10;99983.19;;;-2.48;67.25
69035;BME280;56091;55.756;37.412;2023-02-10T00:28:11;99967.22;;;-2.64;66.66
69035;BME280;56091;55.756;37.412;2023-02-10T00:33:12;99985.94;;;-2.58;66.75
69035;BME280;56091;55.756;37.412;2023-02-10T00:38:13;99974.16;;;-2.63;66.72
69035;BME280;56091;55.756;37.412;2023-02-10T00:43:13;99956.59;;;-2.72;66.33
69035;BME280;56091;55.756;37.412;2023-02-10T00:48:14;99957.63;;;-2.83;66.66
69035;BME280;56091;55.756;37.412;2023-02-10T00:53:15;99950.25;;;-2.98;66.79
69035;BME280;56091;55.756;37.412;2023-02-10T00:58:16;99943.84;;;-2.95;66.85
69035;BME280;56091;55.756;37.412;2023-02-10T01:03:16;99935.38;;;-2.99;67.21
69035;BME280;56091;55.756;37.412;2023-02-10T01:08:20;99910.03;;;-3.09;67.44
69035;BME280;56091;55.756;37.412;2023-02-10T01:13:24;99924.44;;;-3.04;67.52
69035;BME280;56091;55.756;37.412;2023-02-10T01:18:27;99907.63;;;-3.03;67.71
69035;BME280;56091;55.756;37.412;2023-02-10T01:23:29;99896.41;;;-3.05;67.69
69035;BME280;56091;55.756;37.412;2023-02-10T01:28:36;99885.91;;;-2.97;68.22
69035;BME280;56091;55.756;37.412;2023-02-10T01:33:40;99864.88;;;-3.06;68.69
69035;BME280;56091;55.756;37.412;2023-02-10T01:38:42;99854.06;;;-3.13;69.07
69035;BME280;56091;55.756;37.412;2023-02-10T01:44:56;99862.16;;;-3.15;68.89
69035;BME280;56091;55.756;37.412;2023-02-10T01:49:28;99865.41;;;-3.21;69.76
69035;BME280;56091;55.756;37.412;2023-02-10T01:54:35;99866.25;;;-3.20;69.57
69035;BME280;56091;55.756;37.412;2023-02-10T01:59:39;99843.31;;;-3.20;69.53
69035;BME280;56091;55.756;37.412;2023-02-10T02:04:50;99814.31;;;-3.38;69.93
69035;BME280;56091;55.756;37.412;2023-02-10T02:09:55;99836.66;;;-3.06;69.77
69035;BME280;56091;55.756;37.412;2023-02-10T02:20:43;99814.88;;;-3.08;69.58
69035;BME280;56091;55.756;37.412;2023-02-10T02:36:57;99797.91;;;-3.05;69.63
69035;BME280;56091;55.756;37.412;2023-02-10T02:52:47;99755.16;;;-3.09;69.89
69035;BME280;56091;55.756;37.412;2023-02-10T02:57:57;99741.69;;;-3.24;69.92
69035;BME280;56091;55.756;37.412;2023-02-10T03:03:01;99715.59;;;-3.27;70.19
69035;BME280;56091;55.756;37.412;2023-02-10T03:08:01;99742.41;;;-3.14;70.16
69035;BME280;56091;55.756;37.412;2023-02-10T03:13:05;99708.72;;;-3.20;70.25
69035;BME280;56091;55.756;37.412;2023-02-10T03:18:06;99716.09;;;-3.05;70.39
69035;BME280;56091;55.756;37.412;2023-02-10T03:23:07;99702.56;;;-3.02;69.97
69035;BME280;56091;55.756;37.412;2023-02-10T03:28:08;99691.16;;;-3.03;70.21
69035;BME280;56091;55.756;37.412;2023-02-10T03:33:09;99683.91;;;-3.01;70.36
69035;BME280;56091;55.756;37.412;2023-02-10T03:38:11;99665.63;;;-2.94;70.08
69035;BME280;56091;55.756;37.412;2023-02-10T03:43:14;99663.63;;;-3.00;70.27
69035;BME280;56091;55.756;37.412;2023-02-10T03:48:15;99654.72;;;-2.99;70.14
69035;BME280;56091;55.756;37.412;2023-02-10T03:53:16;99643.16;;;-2.98;70.20
69035;BME280;56091;55.756;37.412;2023-02-10T03:58:17;99638.66;;;-3.14;70.58
69035;BME280;56091;55.756;37.412;2023-02-10T04:03:18;99623.38;;;-3.28;70.83
69035;BME280;56091;55.756;37.412;2023-02-10T04:08:19;99625.22;;;-3.29;71.23
69035;BME280;56091;55.756;37.412;2023-02-10T04:13:20;99625.38;;;-3.30;71.52
69035;BME280;56091;55.756;37.412;2023-02-10T04:18:20;99606.66;;;-3.45;71.80
69035;BME280;56091;55.756;37.412;2023-02-10T04:23:21;99577.41;;;-3.60;72.29
69035;BME280;56091;55.756;37.412;2023-02-10T04:28:22;99595.28;;;-3.46;72.31
69035;BME280;56091;55.756;37.412;2023-02-10T04:33:24;99580.44;;;-3.47;72.16
69035;BME280;56091;55.756;37.412;2023-02-10T04:38:25;99581.78;;;-3.43;72.23
69035;BME280;56091;55.756;37.412;2023-02-10T04:43:26;99606.47;;;-3.52;72.50
69035;BME280;56091;55.756;37.412;2023-02-10T04:48:27;99570.09;;;-3.66;72.81
69035;BME280;56091;55.756;37.412;2023-02-10T04:53:28;99592.75;;;-3.56;72.65
69035;BME280;56091;55.756;37.412;2023-02-10T04:58:30;99584.84;;;-3.56;72.72
69035;BME280;56091;55.756;37.412;2023-02-10T05:03:31;99577.28;;;-3.50;72.68
69035;BME280;56091;55.756;37.412;2023-02-10T05:08:32;99560.28;;;-3.56;72.55
69035;BME280;56091;55.756;37.412;2023-02-10T05:13:33;99577.72;;;-3.63;72.72
69035;BME280;56091;55.756;37.412;2023-02-10T05:18:37;99586.28;;;-3.61;72.97
69035;BME280;56091;55.756;37.412;2023-02-10T05:23:40;99579.00;;;-3.67;73.29
69035;BME280;56091;55.756;37.412;2023-02-10T05:28:40;99562.28;;;-3.76;73.47
69035;BME280;56091;55.756;37.412;2023-02-10T05:33:41;99542.63;;;-3.90;73.44
69035;BME280;56091;55.756;37.412;2023-02-10T05:38:42;99551.84;;;-3.86;73.66
69035;BME280;56091;55.756;37.412;2023-02-10T05:44:02;99531.00;;;-3.79;74.09
69035;BME280;56091;55.756;37.412;2023-02-10T05:49:04;99527.31;;;-3.86;73.63
69035;BME280;56091;55.756;37.412;2023-02-10T05:54:06;99530.13;;;-3.80;73.46
69035;BME280;56091;55.756;37.412;2023-02-10T05:59:07;99526.66;;;-3.88;73.22
69035;BME280;56091;55.756;37.412;2023-02-10T06:04:09;99517.88;;;-3.89;73.54
69035;BME280;56091;55.756;37.412;2023-02-10T06:09:10;99512.00;;;-3.83;73.21
69035;BME280;56091;55.756;37.412;2023-02-10T06:14:11;99507.72;;;-3.84;73.03
69035;BME280;56091;55.756;37.412;2023-02-10T06:19:12;99487.63;;;-3.85;72.45
69035;BME280;56091;55.756;37.412;2023-02-10T06:24:12;99496.13;;;-3.91;73.05
69035;BME280;56091;55.756;37.412;2023-02-10T06:29:13;99496.50;;;-3.86;72.69
69035;BME280;56091;55.756;37.412;2023-02-10T06:34:15;99465.91;;;-3.79;72.36
69035;BME280;56091;55.756;37.412;2023-02-10T06:39:16;99441.09;;;-3.51;71.49
69035;BME280;56091;55.756;37.412;2023-02-10T06:44:17;99433.03;;;-3.50;70.68
69035;BME280;56091;55.756;37.412;2023-02-10T06:49:17;99406.31;;;-3.55;70.83
69035;BME280;56091;55.756;37.412;2023-02-10T06:54:18;99392.16;;;-3.54;70.33
69035;BME280;56091;55.756;37.412;2023-02-10T06:59:20;99377.03;;;-3.27;69.07
69035;BME280;56091;55.756;37.412;2023-02-10T07:04:21;99365.16;;;-2.99;68.35
69035;BME280;56091;55.756;37.412;2023-02-10T07:09:22;99345.38;;;-2.78;67.22
69035;BME280;56091;55.756;37.412;2023-02-10T07:14:24;99334.81;;;-2.86;66.67
69035;BME280;56091;55.756;37.412;2023-02-10T07:19:25;99323.94;;;-3.00;66.53
69035;BME280;56091;55.756;37.412;2023-02-10T07:24:25;99283.69;;;-3.10;66.38
69035;BME280;56091;55.756;37.412;2023-02-10T07:29:26;99328.44;;;-2.36;65.77
69035;BME280;56091;55.756;37.412;2023-02-10T07:34:27;99327.63;;;-1.97;64.46
69035;BME280;56091;55.756;37.412;2023-02-10T07:39:29;99269.72;;;-1.84;62.80
69035;BME280;56091;55.756;37.412;2023-02-10T07:44:30;99299.13;;;-1.87;62.97
69035;BME280;56091;55.756;37.412;2023-02-10T07:49:31;99315.47;;;-1.83;63.03
69035;BME280;56091;55.756;37.412;2023-02-10T07:54:33;99288.47;;;-2.02;63.48
69035;BME280;56091;55.756;37.412;2023-02-10T07:59:33;99296.59;;;-2.43;63.97
69035;BME280;56091;55.756;37.412;2023-02-10T08:04:34;99305.81;;;-2.47;64.33
69035;BME280;56091;55.756;37.412;2023-02-10T08:09:35;99305.75;;;-2.22;64.02
69035;BME280;56091;55.756;37.412;2023-02-10T08:14:36;99289.38;;;-2.18;63.53
69035;BME280;56091;55.756;37.412;2023-02-10T08:19:36;99283.19;;;-2.02;62.06
69035;BME280;56091;55.756;37.412;2023-02-10T08:24:37;99272.59;;;-1.70;61.30
69035;BME280;56091;55.756;37.412;2023-02-10T08:29:38;99275.13;;;-1.54;60.52
69035;BME280;56091;55.756;37.412;2023-02-10T08:34:39;99272.97;;;-1.12;59.57
69035;BME280;56091;55.756;37.412;2023-02-10T08:39:43;99271.50;;;-1.15;59.37
69035;BME280;56091;55.756;37.412;2023-02-10T08:44:44;99249.34;;;-0.84;58.60
69035;BME280;56091;55.756;37.412;2023-02-10T08:49:45;99251.09;;;-0.62;56.82
69035;BME280;56091;55.756;37.412;2023-02-10T08:54:45;99206.13;;;-0.40;56.20
69035;BME280;56091;55.756;37.412;2023-02-10T08:59:46;99205.41;;;-0.34;55.37
69035;BME280;56091;55.756;37.412;2023-02-10T09:04:47;99199.31;;;-0.79;55.75
69035;BME280;56091;55.756;37.412;2023-02-10T09:09:48;99175.53;;;-0.72;55.60
69035;BME280;56091;55.756;37.412;2023-02-10T09:14:48;99168.81;;;-0.90;55.46
69035;BME280;56091;55.756;37.412;2023-02-10T09:19:49;99171.38;;;-0.96;55.29
69035;BME280;56091;55.756;37.412;2023-02-10T09:24:50;99113.47;;;-1.00;55.48
69035;BME280;56091;55.756;37.412;2023-02-10T09:29:52;99115.94;;;-0.83;54.61
69035;BME280;56091;55.756;37.412;2023-02-10T09:34:53;99122.84;;;-0.82;54.59
69035;BME280;56091;55.756;37.412;2023-02-10T09:39:56;99081.97;;;-0.94;53.98
69035;BME280;56091;55.756;37.412;2023-02-10T09:45:13;99111.13;;;-0.58;53.80
69035;BME280;56091;55.756;37.412;2023-02-10T09:55:54;99145.91;;;-0.46;52.83
69035;BME280;56091;55.756;37.412;2023-02-10T10:11:25;99097.31;;;-0.53;53.30
69035;BME280;56091;55.756;37.412;2023-02-10T10:16:44;99111.28;;;-0.23;52.32
69035;BME280;56091;55.756;37.412;2023-02-10T10:37:18;99067.66;;;-0.64;51.26
69035;BME280;56091;55.756;37.412;2023-02-10T10:42:23;99053.91;;;-0.52;51.12
69035;BME280;56091;55.756;37.412;2023-02-10T10:52:29;99043.44;;;-0.61;50.77
69035;BME280;56091;55.756;37.412;2023-02-10T10:57:36;99036.81;;;-0.50;50.29
69035;BME280;56091;55.756;37.412;2023-02-10T11:02:37;99007.25;;;-0.90;50.30
69035;BME280;56091;55.756;37.412;2023-02-10T11:07:39;99005.09;;;-1.01;50.44
69035;BME280;56091;55.756;37.412;2023-02-10T11:12:44;99011.56;;;-0.67;50.93
69035;BME280;56091;55.756;37.412;2023-02-10T11:17:46;99012.50;;;-0.53;50.42
69035;BME280;56091;55.756;37.412;2023-02-10T11:23:04;98989.41;;;-0.38;50.34
69035;BME280;56091;55.756;37.412;2023-02-10T11:28:18;98983.97;;;-0.30;50.18
69035;BME280;56091;55.756;37.412;2023-02-10T11:33:22;98986.56;;;-0.36;50.07
69035;BME280;56091;55.756;37.412;2023-02-10T11:38:25;98962.75;;;-0.58;50.65
69035;BME280;56091;55.756;37.412;2023-02-10T11:43:51;98962.78;;;-0.30;50.38
69035;BME280;56091;55.756;37.412;2023-02-10T11:49:01;98952.97;;;-0.29;49.98
69035;BME280;56091;55.756;37.412;2023-02-10T11:54:02;98945.78;;;-0.64;50.38
69035;BME280;56091;55.756;37.412;2023-02-10T12:04:28;98933.16;;;-0.62;50.72
69035;BME280;56091;55.756;37.412;2023-02-10T12:09:59;98921.69;;;-0.69;50.80
69035;BME280;56091;55.756;37.412;2023-02-10T12:26:01;98885.09;;;-0.80;51.27
69035;BME280;56091;55.756;37.412;2023-02-10T12:31:23;98923.06;;;-0.73;51.75
69035;BME280;56091;55.756;37.412;2023-02-10T12:52:18;98907.16;;;-1.16;52.84
69035;BME280;56091;55.756;37.412;2023-02-10T12:57:37;98892.63;;;-1.05;53.12
69035;BME280;56091;55.756;37.412;2023-02-10T13:02:46;98890.84;;;-1.20;53.23
69035;BME280;56091;55.756;37.412;2023-02-10T13:07:54;98885.19;;;-1.16;53.84
69035;BME280;56091;55.756;37.412;2023-02-10T13:18:22;98912.94;;;-1.49;54.49
69035;BME280;56091;55.756;37.412;2023-02-10T13:39:23;98890.69;;;-1.54;55.55
69035;BME280;56091;55.756;37.412;2023-02-10T13:44:29;98871.25;;;-1.62;55.56
69035;BME280;56091;55.756;37.412;2023-02-10T13:49:31;98873.66;;;-1.67;56.16
69035;BME280;56091;55.756;37.412;2023-02-10T13:54:32;98870.72;;;-1.57;55.96
69035;BME280;56091;55.756;37.412;2023-02-10T13:59:39;98887.41;;;-1.57;55.85
69035;BME280;56091;55.756;37.412;2023-02-10T14:04:43;98883.94;;;-1.57;56.13
69035;BME280;56091;55.756;37.412;2023-02-10T14:09:47;98871.72;;;-1.58;56.14
69035;BME280;56091;55.756;37.412;2023-02-10T14:14:48;98869.47;;;-1.61;56.60
69035;BME280;56091;55.756;37.412;2023-02-10T14:19:49;98861.25;;;-1.66;56.50
69035;BME280;56091;55.756;37.412;2023-02-10T14:24:52;98856.50;;;-1.71;56.74
69035;BME280;56091;55.756;37.412;2023-02-10T14:30:05;98871.09;;;-1.75;56.44
69035;BME280;56091;55.756;37.412;2023-02-10T14:35:24;98869.66;;;-1.78;56.62
69035;BME280;56091;55.756;37.412;2023-02-10T14:40:27;98876.50;;;-1.68;56.75
69035;BME280;56091;55.756;37.412;2023-02-10T14:45:29;98853.97;;;-1.79;57.00
69035;BME280;56091;55.756;37.412;2023-02-10T14:50:34;98867.09;;;-1.71;56.98
69035;BME280;56091;55.756;37.412;2023-02-10T14:55:52;98860.16;;;-1.72;57.40
69035;BME280;56091;55.756;37.412;2023-02-10T15:01:09;98861.38;;;-1.74;57.20
69035;BME280;56091;55.756;37.412;2023-02-10T15:06:20;98870.94;;;-1.73;57.52
69035;BME280;56091;55.756;37.412;2023-02-10T15:11:43;98904.31;;;-1.72;57.49
69035;BME280;56091;55.756;37.412;2023-02-10T15:17:06;98884.50;;;-1.77;57.85
69035;BME280;56091;55.756;37.412;2023-02-10T15:22:39;98894.09;;;-1.75;58.18
69035;BME280;56091;55.756;37.412;2023-02-10T15:27:40;98843.81;;;-1.97;58.20
69035;BME280;56091;55.756;37.412;2023-02-10T15:32:50;98899.56;;;-1.77;58.12
69035;BME280;56091;55.756;37.412;2023-02-10T15:37:54;98879.97;;;-1.83;58.37
69035;BME280;56091;55.756;37.412;2023-02-10T15:43:04;98887.16;;;-1.77;58.28
69035;BME280;56091;55.756;37.412;2023-02-10T15:48:08;98865.66;;;-1.88;58.28
69035;BME280;56091;55.756;37.412;2023-02-10T15:53:12;98880.75;;;-1.67;58.35
69035;BME280;56091;55.756;37.412;2023-02-10T15:58:17;98891.44;;;-1.75;58.68
69035;BME280;56091;55.756;37.412;2023-02-10T16:03:18;98898.41;;;-1.74;58.92
69035;BME280;56091;55.756;37.412;2023-02-10T16:08:21;98898.81;;;-1.71;59.16
69035;BME280;56091;55.756;37.412;2023-02-10T16:13:23;98907.31;;;-1.75;59.66
69035;BME280;56091;55.756;37.412;2023-02-10T16:18:25;98897.56;;;-1.75;61.07
69035;BME280;56091;55.756;37.412;2023-02-10T16:23:27;98890.03;;;-1.93;63.48
69035;BME280;56091;55.756;37.412;2023-02-10T16:28:28;98912.25;;;-2.02;65.82
69035;BME280;56091;55.756;37.412;2023-02-10T16:33:29;98931.66;;;-2.10;67.49
69035;BME280;56091;55.756;37.412;2023-02-10T16:38:31;98923.72;;;-2.25;70.42
69035;BME280;56091;55.756;37.412;2023-02-10T16:43:33;98958.59;;;-2.44;73.81
69035;BME280;56091;55.756;37.412;2023-02-10T16:48:34;98945.81;;;-2.56;77.18
69035;BME280;56091;55.756;37.412;2023-02-10T16:53:35;98946.81;;;-2.80;78.95
69035;BME280;56091;55.756;37.412;2023-02-10T16:58:35;98951.34;;;-2.88;80.18
69035;BME280;56091;55.756;37.412;2023-02-10T17:03:36;98945.41;;;-2.90;80.03
69035;BME280;56091;55.756;37.412;2023-02-10T17:08:37;98898.44;;;-3.18;79.89
69035;BME280;56091;55.756;37.412;2023-02-10T17:13:38;98916.09;;;-2.96;79.35
69035;BME280;56091;55.756;37.412;2023-02-10T17:18:39;98949.69;;;-2.66;78.67
69035;BME280;56091;55.756;37.412;2023-02-10T17:23:39;98950.34;;;-2.64;77.81
69035;BME280;56091;55.756;37.412;2023-02-10T17:28:40;98969.88;;;-2.73;76.96
69035;BME280;56091;55.756;37.412;2023-02-10T17:33:42;98968.47;;;-2.61;77.06
69035;BME280;56091;55.756;37.412;2023-02-10T17:38:49;98952.34;;;-2.66;76.81
69035;BME280;56091;55.756;37.412;2023-02-10T17:43:56;98936.84;;;-2.69;76.26
69035;BME280;56091;55.756;37.412;2023-02-10T17:48:57;98947.34;;;-2.61;75.83
69035;BME280;56091;55.756;37.412;2023-02-10T17:53:58;98928.88;;;-2.61;75.49
69035;BME280;56091;55.756;37.412;2023-02-10T17:59:01;98936.31;;;-2.65;75.03
69035;BME280;56091;55.756;37.412;2023-02-10T18:04:09;98934.31;;;-2.63;75.35
69035;BME280;56091;55.756;37.412;2023-02-10T18:09:11;98903.69;;;-2.72;75.33
69035;BME280;56091;55.756;37.412;2023-02-10T18:14:12;98889.28;;;-2.84;75.51
69035;BME280;56091;55.756;37.412;2023-02-10T18:19:13;98893.97;;;-2.95;75.73
69035;BME280;56091;55.756;37.412;2023-02-10T18:24:14;98920.66;;;-2.89;75.80
69035;BME280;56091;55.756;37.412;2023-02-10T18:29:15;98897.50;;;-3.02;75.64
69035;BME280;56091;55.756;37.412;2023-02-10T18:34:18;98921.47;;;-2.89;75.55
69035;BME280;56091;55.756;37.412;2023-02-10T18:39:19;98911.16;;;-2.99;75.70
69035;BME280;56091;55.756;37.412;2023-02-10T18:44:22;98907.25;;;-3.03;75.66
69035;BME280;56091;55.756;37.412;2023-02-10T18:49:23;98921.19;;;-2.94;75.38
69035;BME280;56091;55.756;37.412;2023-02-10T18:54:24;98916.78;;;-3.02;74.80
69035;BME280;56091;55.756;37.412;2023-02-10T18:59:27;98886.19;;;-3.11;74.77
69035;BME280;56091;55.756;37.412;2023-02-10T19:04:27;98913.97;;;-3.00;75.00
69035;BME280;56091;55.756;37.412;2023-02-10T19:09:29;98903.16;;;-3.05;75.11
69035;BME280;56091;55.756;37.412;2023-02-10T19:14:30;98912.44;;;-3.18;75.08
69035;BME280;56091;55.756;37.412;2023-02-10T19:19:31;98896.22;;;-3.29;75.49
69035;BME280;56091;55.756;37.412;2023-02-10T19:24:32;98888.88;;;-3.19;75.40
69035;BME280;56091;55.756;37.412;2023-02-10T19:29:32;98890.16;;;-3.15;74.93
69035;BME280;56091;55.756;37.412;2023-02-10T19:34:33;98884.19;;;-3.09;74.46
69035;BME280;56091;55.756;37.412;2023-02-10T19:39:34;98857.59;;;-3.22;74.51
69035;BME280;56091;55.756;37.412;2023-02-10T19:44:35;98878.72;;;-3.07;74.20
69035;BME280;56091;55.756;37.412;2023-02-10T19:49:36;98907.16;;;-2.95;73.68
69035;BME280;56091;55.756;37.412;2023-02-10T19:54:37;98903.94;;;-2.82;73.17
69035;BME280;56091;55.756;37.412;2023-02-10T19:59:38;98897.94;;;-2.76;72.82
69035;BME280;56091;55.756;37.412;2023-02-10T20:04:40;98906.16;;;-2.70;73.01
69035;BME280;56091;55.756;37.412;2023-02-10T20:09:42;98855.94;;;-2.85;72.75
69035;BME280;56091;55.756;37.412;2023-02-10T20:14:43;98891.94;;;-2.84;73.12
69035;BME280;56091;55.756;37.412;2023-02-10T20:19:44;98896.41;;;-2.70;73.09
69035;BME280;56091;55.756;37.412;2023-02-10T20:24:44;98818.03;;;-3.07;72.89
69035;BME280;56091;55.756;37.412;2023-02-10T20:29:45;98870.13;;;-2.63;73.09
69035;BME280;56091;55.756;37.412;2023-02-10T20:34:46;98877.66;;;-2.60;72.85
69035;BME280;56091;55.756;37.412;2023-02-10T20:39:47;98885.41;;;-2.59;73.16
69035;BME280;56091;55.756;37.412;2023-02-10T20:44:48;98880.13;;;-2.59;73.20
69035;BME280;56091;55.756;37.412;2023-02-10T20:49:48;98874.75;;;-2.50;73.18
69035;BME280;56091;55.756;37.412;2023-02-10T20:54:49;98843.97;;;-2.58;72.69
69035;BME280;56091;55.756;37.412;2023-02-10T20:59:50;98867.25;;;-2.39;72.60
69035;BME280;56091;55.756;37.412;2023-02-10T21:04:51;98875.00;;;-2.37;72.62
69035;BME280;56091;55.756;37.412;2023-02-10T21:09:52;98866.22;;;-2.38;72.69
69035;BME280;56091;55.756;37.412;2023-02-10T21:14:52;98884.88;;;-2.39;72.83
69035;BME280;56091;55.756;37.412;2023-02-10T21:19:53;98881.38;;;-2.31;72.58
69035;BME280;56091;55.756;37.412;2023-02-10T21:24:54;98869.50;;;-2.36;72.92
69035;BME280;56091;55.756;37.412;2023-02-10T21:29:55;98857.47;;;-2.38;73.13
69035;BME280;56091;55.756;37.412;2023-02-10T21:34:56;98878.34;;;-2.28;73.17
69035;BME280;56091;55.756;37.412;2023-02-10T21:39:56;98865.22;;;-2.37;73.43
69035;BME280;56091;55.756;37.412;2023-02-10T21:44:57;98861.22;;;-2.47;73.98
69035;BME280;56091;55.756;37.412;2023-02-10T21:49:58;98869.78;;;-2.45;73.87
69035;BME280;56091;55.756;37.412;2023-02-10T21:54:59;98848.09;;;-2.56;73.64
69035;BME280;56091;55.756;37.412;2023-02-10T21:59:59;98855.72;;;-2.61;74.03
69035;BME280;56091;55.756;37.412;2023-02-10T22:05:01;98856.44;;;-2.67;74.27
69035;BME280;56091;55.756;37.412;2023-02-10T22:10:04;98849.06;;;-2.71;74.34
69035;BME280;56091;55.756;37.412;2023-02-10T22:15:06;98884.03;;;-2.69;74.45
69035;BME280;56091;55.756;37.412;2023-02-10T22:20:07;98863.34;;;-2.66;74.59
69035;BME280;56091;55.756;37.412;2023-02-10T22:25:09;98874.94;;;-2.67;74.53
69035;BME280;56091;55.756;37.412;2023-02-10T22:30:10;98875.94;;;-2.68;74.63
69035;BME280;56091;55.756;37.412;2023-02-10T22:35:11;98867.63;;;-2.80;74.53
69035;BME280;56091;55.756;37.412;2023-02-10T22:40:16;98887.84;;;-2.72;74.57
69035;BME280;56091;55.756;37.412;2023-02-10T22:45:17;98885.94;;;-2.78;74.29
69035;BME280;56091;55.756;37.412;2023-02-10T22:50:26;98869.47;;;-2.65;74.34
69035;BME280;56091;55.756;37.412;2023-02-10T22:55:27;98880.03;;;-2.65;74.34
69035;BME280;56091;55.756;37.412;2023-02-10T23:00:28;98893.78;;;-2.70;74.45
69035;BME280;56091;55.756;37.412;2023-02-10T23:05:29;98913.06;;;-2.69;74.56
69035;BME280;56091;55.756;37.412;2023-02-10T23:10:29;98897.78;;;-2.74;74.41
69035;BME280;56091;55.756;37.412;2023-02-10T23:15:31;98920.75;;;-2.83;74.46
69035;BME280;56091;55.756;37.412;2023-02-10T23:20:31;98904.72;;;-2.73;74.75
69035;BME280;56091;55.756;37.412;2023-02-10T23:25:32;98875.78;;;-2.89;74.75
69035;BME280;56091;55.756;37.412;2023-02-10T23:30:33;98900.88;;;-2.70;74.72
69035;BME280;56091;55.756;37.412;2023-02-10T23:35:44;98915.69;;;-2.69;74.72
69035;BME280;56091;55.756;37.412;2023-02-10T23:40:45;98896.50;;;-2.78;74.90
69035;BME280;56091;55.756;37.412;2023-02-10T23:45:46;98902.25;;;-2.75;74.93
69035;BME280;56091;55.756;37.412;2023-02-10T23:50:46;98906.72;;;-2.75;75.14
69035;BME280;56091;55.756;37.412;2023-02-10T23:55:48;98922.25;;;-2.80;74.88
